sensor_id;sensor_type;location;lat;lon;timestamp;pressure;altitude;pressure_sealevel;temperature;humidity
47726;BME280;33483;48.294;16.388;2024-03-23T00:54:14;99052.34;;;10.52;100.00
47726;BME280;33483;48.294;16.388;2024-03-23T00:56:40;99054.47;;;10.59;100.00
47726;BME280;33483;48.294;16.388;2024-03-23T00:59:07;99052.44;;;10.60;100.00
47726;BME280;33483;48.294;16.388;2024-03-23T01:01:33;99049.25;;;10.56;100.00
47726;BME280;33483;48.294;16.388;2024-03-23T01:03:59;99051.22;;;10.48;100.00
47726;BME280;33483;48.294;16.388;2024-03-23T01:06:25;99044.78;;;10.53;100.00
47726;BME280;33483;48.294;16.388;2024-03-23T01:08:51;99048.84;;;10.52;100.00
47726;BME280;33483;48.294;16.388;2024-03-23T01:11:18;99038.72;;;10.54;100.00
47726;BME280;33483;48.294;16.388;2024-03-23T01:13:44;99046.91;;;10.60;100.00
47726;BME280;33483;48.294;16.388;2024-03-23T01:16:10;99043.59;;;10.61;100.00
47726;BME280;33483;48.294;16.388;2024-03-23T01:18:37;99044.13;;;10.60;100.00
47726;BME280;33483;48.294;16.388;2024-03-23T01:21:03;99042.69;;;10.46;100.00
47726;BME280;33483;48.294;16.388;2024-03-23T01:23:29;99038.97;;;10.43;100.00
47726;BME280;33483;48.294;16.388;2024-03-23T01:25:58;99034.38;;;10.46;100.00
47726;BME280;33483;48.294;16.388;2024-03-23T01:28:24;99034.09;;;10.36;100.00
47726;BME280;33483;48.294;16.388;2024-03-23T01:30:50;99036.19;;;10.43;100.00
47726;BME280;33483;48.294;16.388;2024-03-23T01:33:16;99029.84;;;10.35;100.00
47726;BME280;33483;48.294;16.388;2024-03-23T01:35:42;99038.97;;;10.43;100.00
47726;BME280;33483;48.294;16.388;2024-03-23T01:38:08;99027.41;;;10.52;100.00
47726;BME280;33483;48.294;16.388;2024-03-23T01:40:34;99020.91;;;10.50;100.00
47726;BME280;33483;48.294;16.388;2024-03-23T01:45:30;99015.91;;;10.28;100.00
47726;BME280;33483;48.294;16.388;2024-03-23T01:47:56;99005.63;;;10.36;100.00
47726;BME280;33483;48.294;16.388;2024-03-23T01:50:22;98998.50;;;10.40;100.00
47726;BME280;33483;48.294;16.388;2024-03-23T01:52:53;98997.88;;;10.34;100.00
47726;BME280;33483;48.294;16.388;2024-03-23T01:55:20;98999.97;;;10.41;100.00
47726;BME280;33483;48.294;16.388;2024-03-23T01:57:49;98998.16;;;10.44;100.00
47726;BME280;33483;48.294;16.388;2024-03-23T02:00:17;98999.75;;;10.39;100.00
47726;BME280;33483;48.294;16.388;2024-03-23T02:02:44;98994.22;;;10.39;100.00
47726;BME280;33483;48.294;16.388;2024-03-23T02:05:13;99001.06;;;10.38;100.00
47726;BME280;33483;48.294;16.388;2024-03-23T02:07:42;99008.34;;;10.49;100.00
47726;BME280;33483;48.294;16.388;2024-03-23T02:10:09;99005.66;;;10.56;100.00
47726;BME280;33483;48.294;16.388;2024-03-23T02:12:38;98998.38;;;10.66;100.00
47726;BME280;33483;48.294;16.388;2024-03-23T02:15:04;98993.56;;;10.67;100.00
47726;BME280;33483;48.294;16.388;2024-03-23T02:17:33;98990.09;;;10.53;100.00
47726;BME280;33483;48.294;16.388;2024-03-23T02:19:59;98986.13;;;10.41;100.00
47726;BME280;33483;48.294;16.388;2024-03-23T02:22:35;98983.44;;;10.49;100.00
47726;BME280;33483;48.294;16.388;2024-03-23T02:25:01;98976.59;;;10.50;100.00
47726;BME280;33483;48.294;16.388;2024-03-23T02:27:28;98966.81;;;10.49;100.00
47726;BME280;33483;48.294;16.388;2024-03-23T02:29:54;98967.91;;;10.46;100.00
47726;BME280;33483;48.294;16.388;2024-03-23T02:32:20;98955.09;;;10.43;100.00
47726;BME280;33483;48.294;16.388;2024-03-23T02:34:49;98954.16;;;10.40;100.00
47726;BME280;33483;48.294;16.388;2024-03-23T02:37:15;98952.63;;;10.32;100.00
47726;BME280;33483;48.294;16.388;2024-03-23T02:39:41;98935.72;;;10.22;100.00
47726;BME280;33483;48.294;16.388;2024-03-23T02:42:07;98930.72;;;10.20;100.00
47726;BME280;33483;48.294;16.388;2024-03-23T02:44:33;98925.72;;;10.19;100.00
47726;BME280;33483;48.294;16.388;2024-03-23T02:46:59;98933.81;;;10.17;100.00
47726;BME280;33483;48.294;16.388;2024-03-23T02:49:26;98923.56;;;10.25;100.00
47726;BME280;33483;48.294;16.388;2024-03-23T02:51:52;98925.38;;;10.23;100.00
47726;BME280;33483;48.294;16.388;2024-03-23T02:54:18;98917.41;;;10.19;100.00
47726;BME280;33483;48.294;16.388;2024-03-23T02:56:45;98919.50;;;10.26;100.00
47726;BME280;33483;48.294;16.388;2024-03-23T02:59:11;98913.22;;;10.26;100.00
47726;BME280;33483;48.294;16.388;2024-03-23T03:01:37;98916.31;;;10.22;100.00
47726;BME280;33483;48.294;16.388;2024-03-23T03:04:03;98917.28;;;10.25;100.00
47726;BME280;33483;48.294;16.388;2024-03-23T03:06:31;98909.78;;;10.33;100.00
47726;BME280;33483;48.294;16.388;2024-03-23T03:08:57;98909.72;;;10.46;100.00
47726;BME280;33483;48.294;16.388;2024-03-23T03:11:23;98921.25;;;10.57;100.00
47726;BME280;33483;48.294;16.388;2024-03-23T03:13:49;98917.00;;;10.56;100.00
47726;BME280;33483;48.294;16.388;2024-03-23T03:16:16;98914.09;;;10.41;100.00
47726;BME280;33483;48.294;16.388;2024-03-23T03:18:41;98915.38;;;10.40;100.00
47726;BME280;33483;48.294;16.388;2024-03-23T03:21:08;98914.78;;;10.34;100.00
47726;BME280;33483;48.294;16.388;2024-03-23T03:23:37;98916.28;;;10.35;100.00
47726;BME280;33483;48.294;16.388;2024-03-23T03:26:06;98915.53;;;10.35;100.00
47726;BME280;33483;48.294;16.388;2024-03-23T03:28:32;98912.06;;;10.42;100.00
47726;BME280;33483;48.294;16.388;2024-03-23T03:30:59;98907.50;;;10.44;100.00
47726;BME280;33483;48.294;16.388;2024-03-23T03:33:26;98901.75;;;10.42;100.00
47726;BME280;33483;48.294;16.388;2024-03-23T03:35:52;98899.19;;;10.44;100.00
47726;BME280;33483;48.294;16.388;2024-03-23T03:38:18;98896.69;;;10.33;100.00
47726;BME280;33483;48.294;16.388;2024-03-23T03:40:44;98886.34;;;10.34;100.00
47726;BME280;33483;48.294;16.388;2024-03-23T03:43:13;98885.47;;;10.39;100.00
47726;BME280;33483;48.294;16.388;2024-03-23T03:45:39;98880.81;;;10.34;100.00
47726;BME280;33483;48.294;16.388;2024-03-23T03:48:05;98875.53;;;10.23;100.00
47726;BME280;33483;48.294;16.388;2024-03-23T03:50:32;98878.25;;;10.15;100.00
47726;BME280;33483;48.294;16.388;2024-03-23T03:52:58;98886.97;;;10.19;100.00
47726;BME280;33483;48.294;16.388;2024-03-23T03:55:24;98887.84;;;10.14;100.00
47726;BME280;33483;48.294;16.388;2024-03-23T03:57:53;98883.06;;;10.01;100.00
47726;BME280;33483;48.294;16.388;2024-03-23T04:00:20;98883.19;;;10.09;100.00
47726;BME280;33483;48.294;16.388;2024-03-23T04:02:46;98885.81;;;10.14;100.00
47726;BME280;33483;48.294;16.388;2024-03-23T04:05:12;98880.34;;;10.22;100.00
47726;BME280;33483;48.294;16.388;2024-03-23T04:07:38;98883.09;;;10.22;100.00
47726;BME280;33483;48.294;16.388;2024-03-23T04:10:04;98887.03;;;10.27;100.00
47726;BME280;33483;48.294;16.388;2024-03-23T04:12:33;98883.31;;;10.24;100.00
47726;BME280;33483;48.294;16.388;2024-03-23T04:15:02;98876.00;;;10.13;100.00
47726;BME280;33483;48.294;16.388;2024-03-23T04:17:30;98873.81;;;9.99;100.00
47726;BME280;33483;48.294;16.388;2024-03-23T04:19:58;98869.31;;;9.88;100.00
47726;BME280;33483;48.294;16.388;2024-03-23T04:22:24;98871.31;;;9.88;100.00
47726;BME280;33483;48.294;16.388;2024-03-23T04:24:53;98877.31;;;9.79;100.00
47726;BME280;33483;48.294;16.388;2024-03-23T04:27:19;98868.19;;;9.71;100.00
47726;BME280;33483;48.294;16.388;2024-03-23T04:29:49;98867.22;;;9.81;100.00
47726;BME280;33483;48.294;16.388;2024-03-23T04:32:17;98858.16;;;9.81;100.00
47726;BME280;33483;48.294;16.388;2024-03-23T04:34:44;98860.91;;;9.81;100.00
47726;BME280;33483;48.294;16.388;2024-03-23T04:37:10;98862.47;;;9.69;100.00
47726;BME280;33483;48.294;16.388;2024-03-23T04:39:36;98862.03;;;9.65;100.00
47726;BME280;33483;48.294;16.388;2024-03-23T04:42:03;98861.03;;;9.55;100.00
47726;BME280;33483;48.294;16.388;2024-03-23T04:44:29;98860.59;;;9.51;100.00
47726;BME280;33483;48.294;16.388;2024-03-23T04:46:59;98856.09;;;9.61;100.00
47726;BME280;33483;48.294;16.388;2024-03-23T04:49:26;98859.81;;;9.63;100.00
47726;BME280;33483;48.294;16.388;2024-03-23T04:51:52;98853.31;;;9.61;100.00
47726;BME280;33483;48.294;16.388;2024-03-23T04:54:18;98853.13;;;9.59;100.00
47726;BME280;33483;48.294;16.388;2024-03-23T04:56:48;98849.09;;;9.60;100.00
47726;BME280;33483;48.294;16.388;2024-03-23T04:59:14;98842.69;;;9.65;100.00
47726;BME280;33483;48.294;16.388;2024-03-23T05:01:40;98843.22;;;9.63;100.00
47726;BME280;33483;48.294;16.388;2024-03-23T05:04:08;98835.59;;;9.77;100.00
47726;BME280;33483;48.294;16.388;2024-03-23T05:06:35;98830.81;;;9.77;100.00
47726;BME280;33483;48.294;16.388;2024-03-23T05:09:03;98834.50;;;9.80;100.00
47726;BME280;33483;48.294;16.388;2024-03-23T05:11:33;98820.63;;;9.93;100.00
47726;BME280;33483;48.294;16.388;2024-03-23T05:13:59;98825.47;;;10.00;100.00
47726;BME280;33483;48.294;16.388;2024-03-23T05:16:26;98815.88;;;10.01;100.00
47726;BME280;33483;48.294;16.388;2024-03-23T05:18:52;98819.53;;;9.96;100.00
47726;BME280;33483;48.294;16.388;2024-03-23T05:21:18;98815.69;;;9.99;100.00
47726;BME280;33483;48.294;16.388;2024-03-23T05:23:44;98817.72;;;9.98;100.00
47726;BME280;33483;48.294;16.388;2024-03-23T05:26:10;98809.81;;;10.02;100.00
47726;BME280;33483;48.294;16.388;2024-03-23T05:28:36;98810.31;;;10.14;100.00
47726;BME280;33483;48.294;16.388;2024-03-23T05:31:02;98812.34;;;10.13;100.00
47726;BME280;33483;48.294;16.388;2024-03-23T05:33:28;98812.81;;;10.25;100.00
47726;BME280;33483;48.294;16.388;2024-03-23T05:35:58;98816.50;;;10.28;100.00
47726;BME280;33483;48.294;16.388;2024-03-23T05:38:24;98815.25;;;10.36;100.00
47726;BME280;33483;48.294;16.388;2024-03-23T05:40:56;98809.78;;;10.44;100.00
47726;BME280;33483;48.294;16.388;2024-03-23T05:43:22;98807.75;;;10.44;100.00
47726;BME280;33483;48.294;16.388;2024-03-23T05:45:55;98817.94;;;10.49;100.00
47726;BME280;33483;48.294;16.388;2024-03-23T05:48:21;98806.81;;;10.42;100.00
47726;BME280;33483;48.294;16.388;2024-03-23T05:50:50;98812.69;;;10.38;100.00
47726;BME280;33483;48.294;16.388;2024-03-23T05:53:17;98804.59;;;10.40;100.00
47726;BME280;33483;48.294;16.388;2024-03-23T05:55:43;98808.84;;;10.41;100.00
47726;BME280;33483;48.294;16.388;2024-03-23T05:58:10;98808.34;;;10.50;100.00
47726;BME280;33483;48.294;16.388;2024-03-23T06:00:36;98809.16;;;10.58;100.00
47726;BME280;33483;48.294;16.388;2024-03-23T06:03:02;98804.19;;;10.64;100.00
47726;BME280;33483;48.294;16.388;2024-03-23T06:05:28;98802.97;;;10.80;100.00
47726;BME280;33483;48.294;16.388;2024-03-23T06:07:57;98802.13;;;10.93;100.00
47726;BME280;33483;48.294;16.388;2024-03-23T06:10:23;98807.16;;;11.09;100.00
47726;BME280;33483;48.294;16.388;2024-03-23T06:12:49;98796.06;;;11.09;100.00
47726;BME280;33483;48.294;16.388;2024-03-23T06:15:20;98801.66;;;11.17;100.00
47726;BME280;33483;48.294;16.388;2024-03-23T06:17:46;98795.94;;;11.22;100.00
47726;BME280;33483;48.294;16.388;2024-03-23T06:20:12;98797.56;;;11.10;100.00
47726;BME280;33483;48.294;16.388;2024-03-23T06:22:39;98791.13;;;11.15;100.00
47726;BME280;33483;48.294;16.388;2024-03-23T06:25:05;98781.81;;;11.05;100.00
47726;BME280;33483;48.294;16.388;2024-03-23T06:27:31;98788.06;;;10.98;100.00
47726;BME280;33483;48.294;16.388;2024-03-23T06:29:58;98793.81;;;11.00;100.00
47726;BME280;33483;48.294;16.388;2024-03-23T06:32:27;98786.97;;;10.94;100.00
47726;BME280;33483;48.294;16.388;2024-03-23T06:34:54;98781.78;;;10.90;100.00
47726;BME280;33483;48.294;16.388;2024-03-23T06:37:20;98786.81;;;10.99;100.00
47726;BME280;33483;48.294;16.388;2024-03-23T06:39:47;98774.78;;;10.97;100.00
47726;BME280;33483;48.294;16.388;2024-03-23T06:42:13;98784.44;;;11.03;100.00
47726;BME280;33483;48.294;16.388;2024-03-23T06:44:39;98787.19;;;11.03;100.00
47726;BME280;33483;48.294;16.388;2024-03-23T06:47:06;98779.59;;;10.96;100.00
47726;BME280;33483;48.294;16.388;2024-03-23T06:49:32;98779.59;;;10.96;100.00
47726;BME280;33483;48.294;16.388;2024-03-23T06:51:58;98782.38;;;10.96;100.00
47726;BME280;33483;48.294;16.388;2024-03-23T06:54:26;98780.16;;;11.02;100.00
47726;BME280;33483;48.294;16.388;2024-03-23T06:56:52;98785.34;;;11.06;100.00
47726;BME280;33483;48.294;16.388;2024-03-23T06:59:18;98779.44;;;11.09;100.00
47726;BME280;33483;48.294;16.388;2024-03-23T07:01:44;98779.47;;;11.17;100.00
47726;BME280;33483;48.294;16.388;2024-03-23T07:04:10;98769.50;;;11.14;100.00
47726;BME280;33483;48.294;16.388;2024-03-23T07:06:43;98771.16;;;11.17;100.00
47726;BME280;33483;48.294;16.388;2024-03-23T07:09:10;98774.69;;;11.25;100.00
47726;BME280;33483;48.294;16.388;2024-03-23T07:11:36;98773.75;;;11.30;100.00
47726;BME280;33483;48.294;16.388;2024-03-23T07:14:02;98767.13;;;11.33;100.00
47726;BME280;33483;48.294;16.388;2024-03-23T07:16:28;98760.13;;;11.40;100.00
47726;BME280;33483;48.294;16.388;2024-03-23T07:18:54;98766.78;;;11.52;100.00
47726;BME280;33483;48.294;16.388;2024-03-23T07:21:21;98776.41;;;11.58;100.00
47726;BME280;33483;48.294;16.388;2024-03-23T07:23:49;98767.22;;;11.71;100.00
47726;BME280;33483;48.294;16.388;2024-03-23T07:26:16;98765.75;;;11.85;100.00
47726;BME280;33483;48.294;16.388;2024-03-23T07:28:43;98767.22;;;11.93;100.00
47726;BME280;33483;48.294;16.388;2024-03-23T07:31:11;98769.44;;;12.10;100.00
47726;BME280;33483;48.294;16.388;2024-03-23T07:33:38;98762.00;;;12.27;100.00
47726;BME280;33483;48.294;16.388;2024-03-23T07:36:07;98774.03;;;12.37;100.00
47726;BME280;33483;48.294;16.388;2024-03-23T07:38:35;98772.19;;;12.40;100.00
47726;BME280;33483;48.294;16.388;2024-03-23T07:41:06;98769.19;;;12.53;100.00
47726;BME280;33483;48.294;16.388;2024-03-23T07:43:32;98769.56;;;12.50;100.00
47726;BME280;33483;48.294;16.388;2024-03-23T07:46:00;98771.94;;;12.61;100.00
47726;BME280;33483;48.294;16.388;2024-03-23T07:48:27;98760.22;;;12.77;100.00
47726;BME280;33483;48.294;16.388;2024-03-23T07:51:01;98766.41;;;13.47;100.00
47726;BME280;33483;48.294;16.388;2024-03-23T07:53:27;98764.66;;;15.28;100.00
47726;BME280;33483;48.294;16.388;2024-03-23T07:55:54;98775.22;;;17.62;74.04
47726;BME280;33483;48.294;16.388;2024-03-23T07:58:20;98780.41;;;19.23;60.85
47726;BME280;33483;48.294;16.388;2024-03-23T08:00:46;98774.97;;;20.87;54.74
47726;BME280;33483;48.294;16.388;2024-03-23T08:03:12;98774.13;;;21.60;52.32
47726;BME280;33483;48.294;16.388;2024-03-23T08:05:39;98767.63;;;21.82;51.97
47726;BME280;33483;48.294;16.388;2024-03-23T08:08:05;98771.19;;;22.51;49.62
47726;BME280;33483;48.294;16.388;2024-03-23T08:10:31;98763.56;;;22.26;46.74
47726;BME280;33483;48.294;16.388;2024-03-23T08:12:57;98760.72;;;23.54;44.70
47726;BME280;33483;48.294;16.388;2024-03-23T08:15:24;98755.00;;;23.99;45.23
47726;BME280;33483;48.294;16.388;2024-03-23T08:17:50;98755.19;;;24.51;42.65
47726;BME280;33483;48.294;16.388;2024-03-23T08:20:16;98758.13;;;24.05;43.87
47726;BME280;33483;48.294;16.388;2024-03-23T08:22:42;98750.22;;;24.34;43.13
47726;BME280;33483;48.294;16.388;2024-03-23T08:25:09;98742.56;;;23.90;41.61
47726;BME280;33483;48.294;16.388;2024-03-23T08:27:35;98751.16;;;25.07;40.04
47726;BME280;33483;48.294;16.388;2024-03-23T08:30:01;98742.69;;;25.62;37.79
47726;BME280;33483;48.294;16.388;2024-03-23T08:32:28;98735.97;;;25.91;36.92
47726;BME280;33483;48.294;16.388;2024-03-23T08:34:54;98722.91;;;25.64;38.59
47726;BME280;33483;48.294;16.388;2024-03-23T08:37:21;98726.19;;;25.39;37.09
47726;BME280;33483;48.294;16.388;2024-03-23T08:39:47;98717.69;;;25.04;37.22
47726;BME280;33483;48.294;16.388;2024-03-23T08:42:13;98713.84;;;24.62;37.66
47726;BME280;33483;48.294;16.388;2024-03-23T08:44:42;98715.56;;;23.87;37.13
47726;BME280;33483;48.294;16.388;2024-03-23T08:47:12;98700.97;;;23.30;39.75
47726;BME280;33483;48.294;16.388;2024-03-23T08:49:38;98686.63;;;23.73;38.62
47726;BME280;33483;48.294;16.388;2024-03-23T08:52:04;98691.03;;;23.16;38.79
47726;BME280;33483;48.294;16.388;2024-03-23T08:54:30;98679.53;;;23.12;39.09
47726;BME280;33483;48.294;16.388;2024-03-23T08:56:57;98673.16;;;22.53;41.11
47726;BME280;33483;48.294;16.388;2024-03-23T08:59:23;98669.84;;;22.43;41.41
47726;BME280;33483;48.294;16.388;2024-03-23T09:01:49;98667.72;;;22.01;41.08
47726;BME280;33483;48.294;16.388;2024-03-23T09:04:15;98660.28;;;22.21;40.60
47726;BME280;33483;48.294;16.388;2024-03-23T09:06:42;98660.28;;;22.07;39.96
47726;BME280;33483;48.294;16.388;2024-03-23T09:09:08;98652.22;;;21.48;40.35
47726;BME280;33483;48.294;16.388;2024-03-23T09:11:34;98645.75;;;21.45;41.03
47726;BME280;33483;48.294;16.388;2024-03-23T09:14:03;98638.09;;;21.20;41.01
47726;BME280;33483;48.294;16.388;2024-03-23T09:16:29;98623.19;;;21.59;42.88
47726;BME280;33483;48.294;16.388;2024-03-23T09:18:55;98620.69;;;21.51;41.33
47726;BME280;33483;48.294;16.388;2024-03-23T09:21:21;98610.34;;;20.65;42.79
47726;BME280;33483;48.294;16.388;2024-03-23T09:23:47;98613.59;;;20.98;43.99
47726;BME280;33483;48.294;16.388;2024-03-23T09:26:14;98602.59;;;21.15;44.79
47726;BME280;33483;48.294;16.388;2024-03-23T09:28:43;98591.44;;;21.31;43.15
47726;BME280;33483;48.294;16.388;2024-03-23T09:31:09;98591.13;;;21.93;40.39
47726;BME280;33483;48.294;16.388;2024-03-23T09:33:41;98589.16;;;21.68;40.03
47726;BME280;33483;48.294;16.388;2024-03-23T09:36:07;98586.97;;;21.67;40.66
47726;BME280;33483;48.294;16.388;2024-03-23T09:38:34;98580.06;;;21.56;39.93
47726;BME280;33483;48.294;16.388;2024-03-23T09:41:06;98576.94;;;21.23;39.71
47726;BME280;33483;48.294;16.388;2024-03-23T09:43:33;98568.19;;;21.44;40.30
47726;BME280;33483;48.294;16.388;2024-03-23T09:45:59;98565.25;;;21.42;39.97
47726;BME280;33483;48.294;16.388;2024-03-23T09:48:25;98555.53;;;21.18;39.98
47726;BME280;33483;48.294;16.388;2024-03-23T09:50:51;98550.59;;;21.05;41.04
47726;BME280;33483;48.294;16.388;2024-03-23T09:53:22;98550.19;;;21.24;41.83
47726;BME280;33483;48.294;16.388;2024-03-23T09:55:49;98548.66;;;21.21;39.96
47726;BME280;33483;48.294;16.388;2024-03-23T09:58:16;98539.31;;;21.73;41.55
47726;BME280;33483;48.294;16.388;2024-03-23T10:00:42;98542.97;;;21.75;38.91
47726;BME280;33483;48.294;16.388;2024-03-23T10:03:08;98528.91;;;21.21;40.16
47726;BME280;33483;48.294;16.388;2024-03-23T10:05:37;98532.13;;;21.02;40.80
47726;BME280;33483;48.294;16.388;2024-03-23T10:10:39;98515.00;;;21.52;40.52
47726;BME280;33483;48.294;16.388;2024-03-23T10:13:05;98508.44;;;21.48;41.48
47726;BME280;33483;48.294;16.388;2024-03-23T10:15:34;98497.47;;;21.54;39.54
47726;BME280;33483;48.294;16.388;2024-03-23T10:18:18;98497.63;;;21.71;39.52
47726;BME280;33483;48.294;16.388;2024-03-23T10:20:51;98491.69;;;21.79;39.30
47726;BME280;33483;48.294;16.388;2024-03-23T10:23:17;98493.63;;;22.03;39.55
47726;BME280;33483;48.294;16.388;2024-03-23T10:25:43;98483.56;;;22.00;37.45
47726;BME280;33483;48.294;16.388;2024-03-23T10:28:10;98482.50;;;22.37;37.13
47726;BME280;33483;48.294;16.388;2024-03-23T10:30:37;98483.16;;;22.51;38.81
47726;BME280;33483;48.294;16.388;2024-03-23T10:33:10;98474.91;;;22.41;36.38
47726;BME280;33483;48.294;16.388;2024-03-23T10:35:39;98466.03;;;22.62;37.50
47726;BME280;33483;48.294;16.388;2024-03-23T10:38:06;98467.13;;;22.86;36.85
47726;BME280;33483;48.294;16.388;2024-03-23T10:40:35;98464.03;;;22.96;38.44
47726;BME280;33483;48.294;16.388;2024-03-23T10:43:02;98459.47;;;23.04;36.82
47726;BME280;33483;48.294;16.388;2024-03-23T10:45:28;98454.59;;;23.07;38.35
47726;BME280;33483;48.294;16.388;2024-03-23T10:47:55;98450.56;;;23.12;35.99
47726;BME280;33483;48.294;16.388;2024-03-23T10:50:22;98440.94;;;23.17;35.55
47726;BME280;33483;48.294;16.388;2024-03-23T10:52:48;98430.03;;;23.27;37.55
47726;BME280;33483;48.294;16.388;2024-03-23T10:55:15;98437.69;;;23.40;37.55
47726;BME280;33483;48.294;16.388;2024-03-23T10:57:54;98442.38;;;23.51;36.81
47726;BME280;33483;48.294;16.388;2024-03-23T11:00:20;98436.97;;;23.75;35.34
47726;BME280;33483;48.294;16.388;2024-03-23T11:02:49;98427.06;;;23.91;36.15
47726;BME280;33483;48.294;16.388;2024-03-23T11:07:50;98433.00;;;23.29;35.83
47726;BME280;33483;48.294;16.388;2024-03-23T11:10:24;98431.56;;;22.97;36.73
47726;BME280;33483;48.294;16.388;2024-03-23T11:12:50;98432.66;;;22.43;38.17
47726;BME280;33483;48.294;16.388;2024-03-23T11:15:16;98413.53;;;22.26;38.10
47726;BME280;33483;48.294;16.388;2024-03-23T11:17:43;98412.03;;;21.94;36.68
47726;BME280;33483;48.294;16.388;2024-03-23T11:20:31;98409.03;;;21.76;36.93
47726;BME280;33483;48.294;16.388;2024-03-23T11:22:59;98402.56;;;21.87;37.05
47726;BME280;33483;48.294;16.388;2024-03-23T11:25:26;98400.78;;;22.41;37.84
47726;BME280;33483;48.294;16.388;2024-03-23T11:28:14;98409.84;;;23.17;36.37
47726;BME280;33483;48.294;16.388;2024-03-23T11:30:39;98398.84;;;23.58;33.92
47726;BME280;33483;48.294;16.388;2024-03-23T11:33:08;98397.53;;;23.61;34.71
47726;BME280;33483;48.294;16.388;2024-03-23T11:35:37;98398.81;;;23.40;34.25
47726;BME280;33483;48.294;16.388;2024-03-23T11:40:33;98384.94;;;23.47;35.33
47726;BME280;33483;48.294;16.388;2024-03-23T11:43:00;98382.50;;;23.06;36.02
47726;BME280;33483;48.294;16.388;2024-03-23T11:45:26;98377.25;;;22.83;35.07
47726;BME280;33483;48.294;16.388;2024-03-23T11:48:04;98373.69;;;23.15;35.28
47726;BME280;33483;48.294;16.388;2024-03-23T11:50:30;98371.28;;;23.41;35.57
47726;BME280;33483;48.294;16.388;2024-03-23T11:55:43;98373.28;;;22.57;36.84
47726;BME280;33483;48.294;16.388;2024-03-23T11:58:10;98357.25;;;22.30;36.87
47726;BME280;33483;48.294;16.388;2024-03-23T12:00:36;98347.44;;;22.15;37.20
47726;BME280;33483;48.294;16.388;2024-03-23T12:03:05;98355.25;;;22.01;37.15
47726;BME280;33483;48.294;16.388;2024-03-23T12:05:32;98341.69;;;22.13;38.06
47726;BME280;33483;48.294;16.388;2024-03-23T12:08:18;98351.22;;;21.91;37.43
47726;BME280;33483;48.294;16.388;2024-03-23T12:10:44;98352.69;;;21.63;38.04
47726;BME280;33483;48.294;16.388;2024-03-23T12:13:11;98353.72;;;21.40;38.46
47726;BME280;33483;48.294;16.388;2024-03-23T12:15:39;98335.81;;;21.20;39.00
47726;BME280;33483;48.294;16.388;2024-03-23T12:18:07;98335.03;;;21.04;39.67
47726;BME280;33483;48.294;16.388;2024-03-23T12:20:33;98329.94;;;20.87;41.76
47726;BME280;33483;48.294;16.388;2024-03-23T12:23:09;98327.53;;;20.68;40.19
47726;BME280;33483;48.294;16.388;2024-03-23T12:25:40;98327.25;;;20.62;40.21
47726;BME280;33483;48.294;16.388;2024-03-23T12:28:07;98316.50;;;20.58;40.04
47726;BME280;33483;48.294;16.388;2024-03-23T12:30:38;98310.88;;;20.58;40.59
47726;BME280;33483;48.294;16.388;2024-03-23T12:33:04;98308.78;;;20.72;40.21
47726;BME280;33483;48.294;16.388;2024-03-23T12:35:31;98318.13;;;20.90;40.03
47726;BME280;33483;48.294;16.388;2024-03-23T12:37:57;98297.78;;;20.92;41.13
47726;BME280;33483;48.294;16.388;2024-03-23T12:40:23;98310.22;;;20.87;39.96
47726;BME280;33483;48.294;16.388;2024-03-23T12:42:50;98298.75;;;20.83;40.48
47726;BME280;33483;48.294;16.388;2024-03-23T12:45:16;98306.78;;;20.75;40.23
47726;BME280;33483;48.294;16.388;2024-03-23T12:47:42;98307.00;;;20.65;40.95
47726;BME280;33483;48.294;16.388;2024-03-23T12:50:08;98309.63;;;20.48;40.63
47726;BME280;33483;48.294;16.388;2024-03-23T12:52:36;98334.84;;;20.32;41.06
47726;BME280;33483;48.294;16.388;2024-03-23T12:55:02;98348.81;;;20.17;40.73
47726;BME280;33483;48.294;16.388;2024-03-23T12:57:29;98382.00;;;19.81;43.32
47726;BME280;33483;48.294;16.388;2024-03-23T12:59:55;98404.91;;;18.91;47.02
47726;BME280;33483;48.294;16.388;2024-03-23T13:02:22;98419.28;;;18.16;54.56
47726;BME280;33483;48.294;16.388;2024-03-23T13:04:52;98424.03;;;16.54;92.45
47726;BME280;33483;48.294;16.388;2024-03-23T13:07:18;98443.78;;;15.30;100.00
47726;BME280;33483;48.294;16.388;2024-03-23T13:09:45;98465.31;;;15.01;100.00
47726;BME280;33483;48.294;16.388;2024-03-23T13:12:11;98455.50;;;15.19;100.00
47726;BME280;33483;48.294;16.388;2024-03-23T13:14:38;98454.31;;;15.22;100.00
47726;BME280;33483;48.294;16.388;2024-03-23T13:17:05;98471.97;;;15.34;100.00
47726;BME280;33483;48.294;16.388;2024-03-23T13:19:31;98479.59;;;15.24;100.00
47726;BME280;33483;48.294;16.388;2024-03-23T13:22:00;98494.25;;;15.06;100.00
47726;BME280;33483;48.294;16.388;2024-03-23T13:24:26;98495.66;;;14.78;100.00
47726;BME280;33483;48.294;16.388;2024-03-23T13:26:54;98511.03;;;14.43;100.00
47726;BME280;33483;48.294;16.388;2024-03-23T13:29:20;98508.69;;;14.22;100.00
47726;BME280;33483;48.294;16.388;2024-03-23T13:31:49;98511.28;;;13.94;100.00
47726;BME280;33483;48.294;16.388;2024-03-23T13:34:18;98522.19;;;13.82;100.00
47726;BME280;33483;48.294;16.388;2024-03-23T13:36:45;98543.22;;;13.76;99.96
47726;BME280;33483;48.294;16.388;2024-03-23T13:39:12;98546.53;;;13.65;90.91
47726;BME280;33483;48.294;16.388;2024-03-23T13:44:08;98582.38;;;13.61;92.92
47726;BME280;33483;48.294;16.388;2024-03-23T13:46:36;98598.59;;;13.54;100.00
47726;BME280;33483;48.294;16.388;2024-03-23T13:49:03;98601.50;;;13.39;100.00
47726;BME280;33483;48.294;16.388;2024-03-23T13:51:30;98616.03;;;13.30;100.00
47726;BME280;33483;48.294;16.388;2024-03-23T13:53:56;98623.19;;;13.16;100.00